sensor_id;sensor_type;location;lat;lon;timestamp;P1;durP1;ratioP1;P2;durP2;ratioP2
56039;SDS011;43937;41.366;2.072;2023-07-20T00:01:39;26.00;;;8.82;;
56039;SDS011;43937;41.366;2.072;2023-07-20T00:04:06;20.77;;;7.97;;
56039;SDS011;43937;41.366;2.072;2023-07-20T00:06:31;16.95;;;8.05;;
56039;SDS011;43937;41.366;2.072;2023-07-20T00:08:56;21.35;;;8.35;;
56039;SDS011;43937;41.366;2.072;2023-07-20T00:11:25;17.45;;;7.97;;
56039;SDS011;43937;41.366;2.072;2023-07-20T00:13:51;16.65;;;7.43;;
56039;SDS011;43937;41.366;2.072;2023-07-20T00:16:17;15.32;;;7.40;;
56039;SDS011;43937;41.366;2.072;2023-07-20T00:18:42;19.63;;;8.48;;
56039;SDS011;43937;41.366;2.072;2023-07-20T00:21:07;19.02;;;7.95;;
56039;SDS011;43937;41.366;2.072;2023-07-20T00:23:33;17.33;;;8.77;;
56039;SDS011;43937;41.366;2.072;2023-07-20T00:25:58;20.73;;;8.52;;
56039;SDS011;43937;41.366;2.072;2023-07-20T00:28:24;20.50;;;8.18;;
56039;SDS011;43937;41.366;2.072;2023-07-20T00:30:49;17.35;;;8.02;;
56039;SDS011;43937;41.366;2.072;2023-07-20T00:33:16;16.17;;;7.85;;
56039;SDS011;43937;41.366;2.072;2023-07-20T00:35:43;17.92;;;8.43;;
56039;SDS011;43937;41.366;2.072;2023-07-20T00:38:08;26.98;;;8.23;;
56039;SDS011;43937;41.366;2.072;2023-07-20T00:40:40;17.52;;;7.93;;
56039;SDS011;43937;41.366;2.072;2023-07-20T00:43:06;16.40;;;8.13;;
56039;SDS011;43937;41.366;2.072;2023-07-20T00:45:33;17.38;;;8.10;;
56039;SDS011;43937;41.366;2.072;2023-07-20T00:47:59;15.80;;;8.30;;
56039;SDS011;43937;41.366;2.072;2023-07-20T00:50:26;18.45;;;7.88;;
56039;SDS011;43937;41.366;2.072;2023-07-20T00:52:54;16.27;;;7.43;;
56039;SDS011;43937;41.366;2.072;2023-07-20T00:55:20;18.10;;;8.13;;
56039;SDS011;43937;41.366;2.072;2023-07-20T00:57:46;16.65;;;7.80;;
56039;SDS011;43937;41.366;2.072;2023-07-20T01:00:12;19.13;;;8.38;;
56039;SDS011;43937;41.366;2.072;2023-07-20T01:02:38;16.25;;;8.02;;
56039;SDS011;43937;41.366;2.072;2023-07-20T01:05:04;17.70;;;7.85;;
56039;SDS011;43937;41.366;2.072;2023-07-20T01:07:43;20.45;;;7.85;;
56039;SDS011;43937;41.366;2.072;2023-07-20T01:10:20;20.15;;;9.05;;
56039;SDS011;43937;41.366;2.072;2023-07-20T01:12:53;16.52;;;8.48;;
56039;SDS011;43937;41.366;2.072;2023-07-20T01:15:20;19.95;;;8.23;;
56039;SDS011;43937;41.366;2.072;2023-07-20T01:17:46;20.40;;;8.52;;
56039;SDS011;43937;41.366;2.072;2023-07-20T01:20:15;18.38;;;8.50;;
56039;SDS011;43937;41.366;2.072;2023-07-20T01:25:34;18.65;;;8.32;;
56039;SDS011;43937;41.366;2.072;2023-07-20T01:33:48;25.67;;;9.70;;
56039;SDS011;43937;41.366;2.072;2023-07-20T01:36:19;21.42;;;9.85;;
56039;SDS011;43937;41.366;2.072;2023-07-20T01:38:46;21.02;;;9.68;;
56039;SDS011;43937;41.366;2.072;2023-07-20T01:41:12;24.10;;;9.60;;
56039;SDS011;43937;41.366;2.072;2023-07-20T01:43:39;25.33;;;9.85;;
56039;SDS011;43937;41.366;2.072;2023-07-20T01:46:05;17.55;;;9.02;;
56039;SDS011;43937;41.366;2.072;2023-07-20T01:48:30;22.35;;;9.57;;
56039;SDS011;43937;41.366;2.072;2023-07-20T01:50:56;18.05;;;9.15;;
56039;SDS011;43937;41.366;2.072;2023-07-20T01:53:22;22.05;;;9.48;;
56039;SDS011;43937;41.366;2.072;2023-07-20T01:55:47;21.63;;;10.18;;
56039;SDS011;43937;41.366;2.072;2023-07-20T01:58:13;17.40;;;9.07;;
56039;SDS011;43937;41.366;2.072;2023-07-20T02:00:38;15.73;;;9.00;;
56039;SDS011;43937;41.366;2.072;2023-07-20T02:03:04;20.95;;;9.18;;
56039;SDS011;43937;41.366;2.072;2023-07-20T02:05:30;18.10;;;8.93;;
56039;SDS011;43937;41.366;2.072;2023-07-20T02:07:55;24.38;;;10.00;;
56039;SDS011;43937;41.366;2.072;2023-07-20T02:10:21;29.42;;;10.93;;
56039;SDS011;43937;41.366;2.072;2023-07-20T02:12:46;28.08;;;10.60;;
56039;SDS011;43937;41.366;2.072;2023-07-20T02:15:12;30.45;;;11.15;;
56039;SDS011;43937;41.366;2.072;2023-07-20T02:17:41;33.65;;;12.20;;
56039;SDS011;43937;41.366;2.072;2023-07-20T02:20:07;37.20;;;13.63;;
56039;SDS011;43937;41.366;2.072;2023-07-20T02:22:36;42.42;;;13.80;;
56039;SDS011;43937;41.366;2.072;2023-07-20T02:25:05;33.63;;;13.38;;
56039;SDS011;43937;41.366;2.072;2023-07-20T02:27:32;31.08;;;11.45;;
56039;SDS011;43937;41.366;2.072;2023-07-20T02:30:00;25.88;;;10.50;;
56039;SDS011;43937;41.366;2.072;2023-07-20T02:32:26;24.60;;;10.50;;
56039;SDS011;43937;41.366;2.072;2023-07-20T02:34:52;28.45;;;10.65;;
56039;SDS011;43937;41.366;2.072;2023-07-20T02:37:18;24.83;;;10.20;;
56039;SDS011;43937;41.366;2.072;2023-07-20T02:39:43;19.55;;;9.40;;
56039;SDS011;43937;41.366;2.072;2023-07-20T02:42:08;21.80;;;9.25;;
56039;SDS011;43937;41.366;2.072;2023-07-20T02:44:34;20.05;;;9.00;;
56039;SDS011;43937;41.366;2.072;2023-07-20T02:46:59;16.42;;;8.50;;
56039;SDS011;43937;41.366;2.072;2023-07-20T02:49:25;15.93;;;8.68;;
56039;SDS011;43937;41.366;2.072;2023-07-20T02:51:50;17.13;;;9.25;;
56039;SDS011;43937;41.366;2.072;2023-07-20T02:54:16;18.77;;;8.88;;
56039;SDS011;43937;41.366;2.072;2023-07-20T02:56:41;16.05;;;8.20;;
56039;SDS011;43937;41.366;2.072;2023-07-20T02:59:07;22.50;;;9.35;;
56039;SDS011;43937;41.366;2.072;2023-07-20T03:01:32;18.85;;;9.43;;
56039;SDS011;43937;41.366;2.072;2023-07-20T03:03:58;26.33;;;9.70;;
56039;SDS011;43937;41.366;2.072;2023-07-20T03:06:23;16.70;;;8.95;;
56039;SDS011;43937;41.366;2.072;2023-07-20T03:08:49;17.70;;;8.80;;
56039;SDS011;43937;41.366;2.072;2023-07-20T03:11:17;20.10;;;9.63;;
56039;SDS011;43937;41.366;2.072;2023-07-20T03:13:43;22.67;;;8.95;;
56039;SDS011;43937;41.366;2.072;2023-07-20T03:16:13;20.65;;;10.10;;
56039;SDS011;43937;41.366;2.072;2023-07-20T03:18:42;27.20;;;10.48;;
56039;SDS011;43937;41.366;2.072;2023-07-20T03:21:09;22.52;;;10.40;;
56039;SDS011;43937;41.366;2.072;2023-07-20T03:23:39;20.83;;;9.55;;
56039;SDS011;43937;41.366;2.072;2023-07-20T03:26:06;29.02;;;10.10;;
56039;SDS011;43937;41.366;2.072;2023-07-20T03:28:35;20.02;;;10.50;;
56039;SDS011;43937;41.366;2.072;2023-07-20T03:31:01;22.38;;;9.93;;
56039;SDS011;43937;41.366;2.072;2023-07-20T03:33:28;30.70;;;10.48;;
56039;SDS011;43937;41.366;2.072;2023-07-20T03:35:55;29.33;;;10.23;;
56039;SDS011;43937;41.366;2.072;2023-07-20T03:38:21;23.67;;;10.65;;
56039;SDS011;43937;41.366;2.072;2023-07-20T03:40:51;21.88;;;10.10;;
56039;SDS011;43937;41.366;2.072;2023-07-20T03:43:21;24.45;;;11.43;;
56039;SDS011;43937;41.366;2.072;2023-07-20T03:45:48;23.17;;;11.45;;
56039;SDS011;43937;41.366;2.072;2023-07-20T03:48:23;27.88;;;12.30;;
56039;SDS011;43937;41.366;2.072;2023-07-20T03:50:52;28.83;;;11.90;;
56039;SDS011;43937;41.366;2.072;2023-07-20T03:53:19;30.20;;;11.77;;
56039;SDS011;43937;41.366;2.072;2023-07-20T03:55:45;22.65;;;10.65;;
56039;SDS011;43937;41.366;2.072;2023-07-20T03:58:12;22.20;;;10.70;;
56039;SDS011;43937;41.366;2.072;2023-07-20T04:00:38;22.38;;;10.40;;
56039;SDS011;43937;41.366;2.072;2023-07-20T04:03:04;18.52;;;10.15;;
56039;SDS011;43937;41.366;2.072;2023-07-20T04:05:30;21.52;;;9.70;;
56039;SDS011;43937;41.366;2.072;2023-07-20T04:07:55;19.48;;;10.88;;
56039;SDS011;43937;41.366;2.072;2023-07-20T04:10:21;21.15;;;9.63;;
56039;SDS011;43937;41.366;2.072;2023-07-20T04:12:46;21.48;;;9.23;;
56039;SDS011;43937;41.366;2.072;2023-07-20T04:15:12;21.27;;;9.70;;
56039;SDS011;43937;41.366;2.072;2023-07-20T04:17:38;23.25;;;10.15;;
56039;SDS011;43937;41.366;2.072;2023-07-20T04:20:04;21.23;;;9.70;;
56039;SDS011;43937;41.366;2.072;2023-07-20T04:22:31;27.02;;;10.60;;
56039;SDS011;43937;41.366;2.072;2023-07-20T04:24:57;29.23;;;11.73;;
56039;SDS011;43937;41.366;2.072;2023-07-20T04:27:22;25.50;;;11.02;;
56039;SDS011;43937;41.366;2.072;2023-07-20T04:29:48;26.73;;;10.55;;
56039;SDS011;43937;41.366;2.072;2023-07-20T04:32:13;25.38;;;10.98;;
56039;SDS011;43937;41.366;2.072;2023-07-20T04:34:38;19.13;;;10.23;;
56039;SDS011;43937;41.366;2.072;2023-07-20T04:37:04;22.00;;;10.32;;
56039;SDS011;43937;41.366;2.072;2023-07-20T04:39:30;21.98;;;10.75;;
56039;SDS011;43937;41.366;2.072;2023-07-20T04:41:56;20.15;;;10.43;;
56039;SDS011;43937;41.366;2.072;2023-07-20T04:44:22;23.50;;;10.43;;
56039;SDS011;43937;41.366;2.072;2023-07-20T04:46:47;21.55;;;9.93;;
56039;SDS011;43937;41.366;2.072;2023-07-20T04:49:13;28.92;;;10.60;;
56039;SDS011;43937;41.366;2.072;2023-07-20T04:51:39;23.60;;;9.98;;
56039;SDS011;43937;41.366;2.072;2023-07-20T04:54:04;21.92;;;9.57;;
56039;SDS011;43937;41.366;2.072;2023-07-20T04:56:30;21.73;;;9.65;;
56039;SDS011;43937;41.366;2.072;2023-07-20T04:58:55;20.70;;;9.77;;
56039;SDS011;43937;41.366;2.072;2023-07-20T05:01:22;20.30;;;10.63;;
56039;SDS011;43937;41.366;2.072;2023-07-20T05:03:48;23.35;;;10.20;;
56039;SDS011;43937;41.366;2.072;2023-07-20T05:06:14;21.88;;;9.13;;
56039;SDS011;43937;41.366;2.072;2023-07-20T05:08:39;25.85;;;10.80;;
56039;SDS011;43937;41.366;2.072;2023-07-20T05:11:05;24.15;;;10.55;;
56039;SDS011;43937;41.366;2.072;2023-07-20T05:13:32;23.42;;;10.50;;
56039;SDS011;43937;41.366;2.072;2023-07-20T05:15:57;24.73;;;11.05;;
56039;SDS011;43937;41.366;2.072;2023-07-20T05:18:23;31.25;;;11.40;;
56039;SDS011;43937;41.366;2.072;2023-07-20T05:20:48;22.33;;;10.93;;
56039;SDS011;43937;41.366;2.072;2023-07-20T05:23:16;25.35;;;10.82;;
56039;SDS011;43937;41.366;2.072;2023-07-20T05:25:42;19.60;;;9.50;;
56039;SDS011;43937;41.366;2.072;2023-07-20T05:28:08;22.55;;;10.48;;
56039;SDS011;43937;41.366;2.072;2023-07-20T05:30:33;23.25;;;10.38;;
56039;SDS011;43937;41.366;2.072;2023-07-20T05:32:59;17.80;;;9.20;;
56039;SDS011;43937;41.366;2.072;2023-07-20T05:35:25;24.80;;;9.70;;
56039;SDS011;43937;41.366;2.072;2023-07-20T05:37:51;18.17;;;9.48;;
56039;SDS011;43937;41.366;2.072;2023-07-20T05:40:16;16.65;;;8.57;;
56039;SDS011;43937;41.366;2.072;2023-07-20T05:42:44;20.33;;;9.15;;
56039;SDS011;43937;41.366;2.072;2023-07-20T05:45:14;21.67;;;8.80;;
56039;SDS011;43937;41.366;2.072;2023-07-20T05:47:39;21.10;;;9.13;;
56039;SDS011;43937;41.366;2.072;2023-07-20T05:50:06;27.25;;;8.63;;
56039;SDS011;43937;41.366;2.072;2023-07-20T05:52:32;20.88;;;8.27;;
56039;SDS011;43937;41.366;2.072;2023-07-20T05:54:57;23.05;;;8.45;;
56039;SDS011;43937;41.366;2.072;2023-07-20T05:57:23;26.42;;;8.05;;
56039;SDS011;43937;41.366;2.072;2023-07-20T05:59:48;22.63;;;11.70;;
56039;SDS011;43937;41.366;2.072;2023-07-20T06:02:14;22.65;;;8.48;;
56039;SDS011;43937;41.366;2.072;2023-07-20T06:04:40;20.88;;;7.55;;
56039;SDS011;43937;41.366;2.072;2023-07-20T06:07:05;24.35;;;7.70;;
56039;SDS011;43937;41.366;2.072;2023-07-20T06:09:32;24.77;;;8.15;;
56039;SDS011;43937;41.366;2.072;2023-07-20T06:11:58;13.18;;;6.25;;
56039;SDS011;43937;41.366;2.072;2023-07-20T06:14:24;21.38;;;6.72;;
56039;SDS011;43937;41.366;2.072;2023-07-20T06:16:49;21.23;;;6.97;;
56039;SDS011;43937;41.366;2.072;2023-07-20T06:19:15;24.38;;;6.93;;
56039;SDS011;43937;41.366;2.072;2023-07-20T06:21:41;19.30;;;7.82;;
56039;SDS011;43937;41.366;2.072;2023-07-20T06:24:07;19.65;;;7.68;;
56039;SDS011;43937;41.366;2.072;2023-07-20T06:26:32;20.67;;;8.20;;
56039;SDS011;43937;41.366;2.072;2023-07-20T06:29:03;20.48;;;7.03;;
56039;SDS011;43937;41.366;2.072;2023-07-20T06:31:30;17.75;;;7.40;;
56039;SDS011;43937;41.366;2.072;2023-07-20T06:33:55;29.70;;;9.43;;
56039;SDS011;43937;41.366;2.072;2023-07-20T06:36:20;23.50;;;7.80;;
56039;SDS011;43937;41.366;2.072;2023-07-20T06:38:46;17.95;;;6.43;;
56039;SDS011;43937;41.366;2.072;2023-07-20T06:41:11;30.92;;;7.63;;
56039;SDS011;43937;41.366;2.072;2023-07-20T06:43:37;30.33;;;7.68;;
56039;SDS011;43937;41.366;2.072;2023-07-20T06:46:02;21.65;;;8.43;;
56039;SDS011;43937;41.366;2.072;2023-07-20T06:48:27;12.70;;;5.50;;
56039;SDS011;43937;41.366;2.072;2023-07-20T06:50:53;21.25;;;5.57;;
56039;SDS011;43937;41.366;2.072;2023-07-20T06:53:19;21.58;;;5.70;;
56039;SDS011;43937;41.366;2.072;2023-07-20T06:55:44;15.93;;;6.85;;
56039;SDS011;43937;41.366;2.072;2023-07-20T06:58:10;24.15;;;8.25;;
56039;SDS011;43937;41.366;2.072;2023-07-20T07:00:36;23.23;;;7.15;;
56039;SDS011;43937;41.366;2.072;2023-07-20T07:03:02;17.17;;;6.63;;
56039;SDS011;43937;41.366;2.072;2023-07-20T07:05:27;17.83;;;6.55;;
56039;SDS011;43937;41.366;2.072;2023-07-20T07:07:53;16.00;;;6.20;;
56039;SDS011;43937;41.366;2.072;2023-07-20T07:10:18;16.20;;;6.43;;
56039;SDS011;43937;41.366;2.072;2023-07-20T07:12:44;17.83;;;6.28;;
56039;SDS011;43937;41.366;2.072;2023-07-20T07:15:09;17.10;;;6.28;;
56039;SDS011;43937;41.366;2.072;2023-07-20T07:17:35;12.90;;;6.10;;
56039;SDS011;43937;41.366;2.072;2023-07-20T07:20:01;14.13;;;5.85;;
56039;SDS011;43937;41.366;2.072;2023-07-20T07:22:28;15.25;;;5.65;;
56039;SDS011;43937;41.366;2.072;2023-07-20T07:24:54;12.10;;;5.15;;
56039;SDS011;43937;41.366;2.072;2023-07-20T07:27:20;17.17;;;5.63;;
56039;SDS011;43937;41.366;2.072;2023-07-20T07:29:45;12.75;;;5.80;;
56039;SDS011;43937;41.366;2.072;2023-07-20T07:32:11;19.67;;;5.78;;
56039;SDS011;43937;41.366;2.072;2023-07-20T07:34:37;13.00;;;5.28;;
56039;SDS011;43937;41.366;2.072;2023-07-20T07:37:03;13.23;;;5.38;;
56039;SDS011;43937;41.366;2.072;2023-07-20T07:39:29;16.02;;;6.03;;
56039;SDS011;43937;41.366;2.072;2023-07-20T07:41:55;14.00;;;6.07;;
56039;SDS011;43937;41.366;2.072;2023-07-20T07:44:20;14.82;;;5.70;;
56039;SDS011;43937;41.366;2.072;2023-07-20T07:46:46;16.63;;;5.80;;
56039;SDS011;43937;41.366;2.072;2023-07-20T07:49:12;16.90;;;8.05;;
56039;SDS011;43937;41.366;2.072;2023-07-20T07:51:37;17.55;;;5.65;;
56039;SDS011;43937;41.366;2.072;2023-07-20T07:54:03;15.57;;;5.43;;
56039;SDS011;43937;41.366;2.072;2023-07-20T07:56:29;11.73;;;5.88;;
56039;SDS011;43937;41.366;2.072;2023-07-20T07:58:55;13.00;;;5.97;;
56039;SDS011;43937;41.366;2.072;2023-07-20T08:01:20;17.85;;;5.13;;
56039;SDS011;43937;41.366;2.072;2023-07-20T08:03:46;17.17;;;5.90;;
56039;SDS011;43937;41.366;2.072;2023-07-20T08:06:15;13.82;;;5.38;;
56039;SDS011;43937;41.366;2.072;2023-07-20T08:08:41;13.60;;;5.57;;
56039;SDS011;43937;41.366;2.072;2023-07-20T08:11:07;16.23;;;5.40;;
56039;SDS011;43937;41.366;2.072;2023-07-20T08:13:33;15.75;;;5.10;;
56039;SDS011;43937;41.366;2.072;2023-07-20T08:15:58;16.63;;;5.10;;
56039;SDS011;43937;41.366;2.072;2023-07-20T08:18:24;19.17;;;5.75;;
56039;SDS011;43937;41.366;2.072;2023-07-20T08:20:50;14.15;;;5.25;;
56039;SDS011;43937;41.366;2.072;2023-07-20T08:23:15;19.80;;;8.57;;
56039;SDS011;43937;41.366;2.072;2023-07-20T08:25:41;18.10;;;5.10;;
56039;SDS011;43937;41.366;2.072;2023-07-20T08:28:13;22.48;;;5.03;;
56039;SDS011;43937;41.366;2.072;2023-07-20T08:30:43;13.27;;;5.10;;
56039;SDS011;43937;41.366;2.072;2023-07-20T08:33:12;15.27;;;5.18;;
56039;SDS011;43937;41.366;2.072;2023-07-20T08:35:38;13.70;;;4.72;;
56039;SDS011;43937;41.366;2.072;2023-07-20T08:38:04;15.80;;;5.20;;
56039;SDS011;43937;41.366;2.072;2023-07-20T08:40:31;13.00;;;5.10;;
56039;SDS011;43937;41.366;2.072;2023-07-20T08:42:57;14.55;;;5.30;;
56039;SDS011;43937;41.366;2.072;2023-07-20T08:45:24;20.48;;;5.32;;
56039;SDS011;43937;41.366;2.072;2023-07-20T08:47:52;16.55;;;4.82;;
56039;SDS011;43937;41.366;2.072;2023-07-20T08:50:19;13.50;;;5.22;;
56039;SDS011;43937;41.366;2.072;2023-07-20T08:52:46;22.13;;;5.10;;
56039;SDS011;43937;41.366;2.072;2023-07-20T08:55:13;11.63;;;5.13;;
56039;SDS011;43937;41.366;2.072;2023-07-20T08:57:38;16.55;;;4.95;;
56039;SDS011;43937;41.366;2.072;2023-07-20T09:00:06;15.60;;;5.22;;
56039;SDS011;43937;41.366;2.072;2023-07-20T09:02:38;19.92;;;4.88;;
56039;SDS011;43937;41.366;2.072;2023-07-20T09:05:08;16.98;;;5.53;;
56039;SDS011;43937;41.366;2.072;2023-07-20T09:07:39;18.00;;;5.25;;
56039;SDS011;43937;41.366;2.072;2023-07-20T09:10:06;13.38;;;5.50;;
56039;SDS011;43937;41.366;2.072;2023-07-20T09:12:35;18.00;;;5.10;;
56039;SDS011;43937;41.366;2.072;2023-07-20T09:15:02;16.20;;;5.80;;
56039;SDS011;43937;41.366;2.072;2023-07-20T09:17:28;14.40;;;5.63;;
56039;SDS011;43937;41.366;2.072;2023-07-20T09:19:54;21.10;;;5.32;;
56039;SDS011;43937;41.366;2.072;2023-07-20T09:22:19;15.88;;;5.82;;
56039;SDS011;43937;41.366;2.072;2023-07-20T09:24:45;16.20;;;5.45;;
56039;SDS011;43937;41.366;2.072;2023-07-20T09:27:11;13.80;;;5.00;;
56039;SDS011;43937;41.366;2.072;2023-07-20T09:29:50;14.05;;;5.28;;
56039;SDS011;43937;41.366;2.072;2023-07-20T09:32:18;21.23;;;4.85;;
56039;SDS011;43937;41.366;2.072;2023-07-20T09:34:45;15.02;;;5.28;;
56039;SDS011;43937;41.366;2.072;2023-07-20T09:37:11;15.73;;;5.60;;
56039;SDS011;43937;41.366;2.072;2023-07-20T09:39:45;17.88;;;5.57;;
56039;SDS011;43937;41.366;2.072;2023-07-20T09:42:11;20.40;;;5.85;;
56039;SDS011;43937;41.366;2.072;2023-07-20T09:44:38;17.30;;;5.90;;
56039;SDS011;43937;41.366;2.072;2023-07-20T09:47:04;16.38;;;5.47;;
56039;SDS011;43937;41.366;2.072;2023-07-20T09:49:30;14.57;;;5.38;;
56039;SDS011;43937;41.366;2.072;2023-07-20T09:51:57;16.80;;;5.68;;
56039;SDS011;43937;41.366;2.072;2023-07-20T09:54:25;17.30;;;5.70;;
56039;SDS011;43937;41.366;2.072;2023-07-20T09:56:52;18.00;;;5.88;;
56039;SDS011;43937;41.366;2.072;2023-07-20T09:59:18;15.32;;;5.22;;
56039;SDS011;43937;41.366;2.072;2023-07-20T10:01:44;19.48;;;5.85;;
56039;SDS011;43937;41.366;2.072;2023-07-20T10:04:11;14.57;;;5.78;;
56039;SDS011;43937;41.366;2.072;2023-07-20T10:06:42;26.10;;;7.38;;
56039;SDS011;43937;41.366;2.072;2023-07-20T10:09:10;17.88;;;6.57;;
56039;SDS011;43937;41.366;2.072;2023-07-20T10:11:40;27.80;;;6.50;;
56039;SDS011;43937;41.366;2.072;2023-07-20T10:14:09;18.50;;;5.70;;
56039;SDS011;43937;41.366;2.072;2023-07-20T10:16:41;20.02;;;6.20;;
56039;SDS011;43937;41.366;2.072;2023-07-20T10:19:32;17.15;;;5.45;;
56039;SDS011;43937;41.366;2.072;2023-07-20T10:22:12;14.95;;;6.25;;
56039;SDS011;43937;41.366;2.072;2023-07-20T10:24:44;15.48;;;5.47;;
56039;SDS011;43937;41.366;2.072;2023-07-20T10:27:10;17.08;;;5.25;;
56039;SDS011;43937;41.366;2.072;2023-07-20T10:29:36;13.27;;;5.55;;
56039;SDS011;43937;41.366;2.072;2023-07-20T10:32:03;11.68;;;5.85;;
56039;SDS011;43937;41.366;2.072;2023-07-20T10:34:29;15.15;;;5.45;;
56039;SDS011;43937;41.366;2.072;2023-07-20T10:36:55;33.40;;;5.35;;
56039;SDS011;43937;41.366;2.072;2023-07-20T10:39:24;24.02;;;5.95;;
56039;SDS011;43937;41.366;2.072;2023-07-20T10:42:08;13.63;;;5.95;;
56039;SDS011;43937;41.366;2.072;2023-07-20T10:44:38;16.50;;;4.90;;
56039;SDS011;43937;41.366;2.072;2023-07-20T10:47:11;18.08;;;5.68;;
56039;SDS011;43937;41.366;2.072;2023-07-20T10:52:23;9.30;;;4.75;;
56039;SDS011;43937;41.366;2.072;2023-07-20T10:54:48;17.35;;;5.53;;
56039;SDS011;43937;41.366;2.072;2023-07-20T10:57:30;14.18;;;5.38;;
56039;SDS011;43937;41.366;2.072;2023-07-20T11:00:09;10.80;;;5.40;;
56039;SDS011;43937;41.366;2.072;2023-07-20T11:07:57;13.07;;;5.28;;
56039;SDS011;43937;41.366;2.072;2023-07-20T11:10:22;11.50;;;4.78;;
56039;SDS011;43937;41.366;2.072;2023-07-20T11:16:14;11.00;;;4.50;;
56039;SDS011;43937;41.366;2.072;2023-07-20T11:18:36;9.25;;;4.55;;
56039;SDS011;43937;41.366;2.072;2023-07-20T11:21:06;13.40;;;5.43;;
56039;SDS011;43937;41.366;2.072;2023-07-20T11:23:32;15.25;;;4.75;;
56039;SDS011;43937;41.366;2.072;2023-07-20T11:25:59;17.48;;;5.05;;
56039;SDS011;43937;41.366;2.072;2023-07-20T11:28:25;12.65;;;4.63;;
56039;SDS011;43937;41.366;2.072;2023-07-20T11:30:52;17.20;;;4.80;;
56039;SDS011;43937;41.366;2.072;2023-07-20T11:33:18;13.27;;;5.50;;
56039;SDS011;43937;41.366;2.072;2023-07-20T11:35:44;16.25;;;5.63;;
56039;SDS011;43937;41.366;2.072;2023-07-20T11:38:14;15.85;;;5.05;;
56039;SDS011;43937;41.366;2.072;2023-07-20T11:40:44;15.88;;;5.32;;
56039;SDS011;43937;41.366;2.072;2023-07-20T11:43:10;13.13;;;4.97;;
56039;SDS011;43937;41.366;2.072;2023-07-20T11:45:38;13.13;;;5.10;;
56039;SDS011;43937;41.366;2.072;2023-07-20T11:48:04;12.50;;;4.72;;
56039;SDS011;43937;41.366;2.072;2023-07-20T11:50:30;14.10;;;3.92;;
56039;SDS011;43937;41.366;2.072;2023-07-20T11:52:57;9.25;;;4.47;;
56039;SDS011;43937;41.366;2.072;2023-07-20T11:55:22;10.85;;;4.47;;
56039;SDS011;43937;41.366;2.072;2023-07-20T11:58:01;17.08;;;4.53;;
56039;SDS011;43937;41.366;2.072;2023-07-20T12:00:27;8.82;;;4.50;;
56039;SDS011;43937;41.366;2.072;2023-07-20T12:02:53;12.07;;;4.38;;
56039;SDS011;43937;41.366;2.072;2023-07-20T12:05:19;11.35;;;4.32;;
56039;SDS011;43937;41.366;2.072;2023-07-20T12:07:47;16.77;;;4.63;;
56039;SDS011;43937;41.366;2.072;2023-07-20T12:10:12;9.63;;;4.10;;
56039;SDS011;43937;41.366;2.072;2023-07-20T12:12:38;13.18;;;4.18;;
56039;SDS011;43937;41.366;2.072;2023-07-20T12:15:19;14.02;;;4.10;;
56039;SDS011;43937;41.366;2.072;2023-07-20T12:17:50;10.25;;;4.13;;
56039;SDS011;43937;41.366;2.072;2023-07-20T12:20:30;13.88;;;4.38;;
56039;SDS011;43937;41.366;2.072;2023-07-20T12:22:58;9.00;;;4.20;;
56039;SDS011;43937;41.366;2.072;2023-07-20T12:25:32;13.57;;;4.55;;
56039;SDS011;43937;41.366;2.072;2023-07-20T12:28:00;11.18;;;3.75;;
56039;SDS011;43937;41.366;2.072;2023-07-20T12:30:27;9.70;;;3.97;;
56039;SDS011;43937;41.366;2.072;2023-07-20T12:32:53;10.82;;;4.13;;
56039;SDS011;43937;41.366;2.072;2023-07-20T12:35:18;15.95;;;4.85;;
56039;SDS011;43937;41.366;2.072;2023-07-20T12:37:43;9.60;;;4.10;;
56039;SDS011;43937;41.366;2.072;2023-07-20T12:40:10;13.82;;;4.30;;
56039;SDS011;43937;41.366;2.072;2023-07-20T12:42:36;12.40;;;4.00;;
56039;SDS011;43937;41.366;2.072;2023-07-20T12:45:01;10.43;;;4.32;;
56039;SDS011;43937;41.366;2.072;2023-07-20T12:47:27;16.48;;;4.88;;
56039;SDS011;43937;41.366;2.072;2023-07-20T12:49:52;17.15;;;4.72;;
56039;SDS011;43937;41.366;2.072;2023-07-20T12:52:18;9.13;;;4.80;;
56039;SDS011;43937;41.366;2.072;2023-07-20T12:54:43;11.75;;;4.57;;
56039;SDS011;43937;41.366;2.072;2023-07-20T12:57:09;17.02;;;4.45;;
56039;SDS011;43937;41.366;2.072;2023-07-20T12:59:34;10.85;;;5.07;;
56039;SDS011;43937;41.366;2.072;2023-07-20T13:01:59;13.25;;;5.13;;
56039;SDS011;43937;41.366;2.072;2023-07-20T13:04:25;10.27;;;4.53;;
56039;SDS011;43937;41.366;2.072;2023-07-20T13:06:51;11.98;;;5.57;;
56039;SDS011;43937;41.366;2.072;2023-07-20T13:09:16;15.18;;;5.80;;
56039;SDS011;43937;41.366;2.072;2023-07-20T13:11:41;14.35;;;5.60;;
56039;SDS011;43937;41.366;2.072;2023-07-20T13:14:07;17.83;;;5.75;;
56039;SDS011;43937;41.366;2.072;2023-07-20T13:16:33;10.82;;;4.57;;
56039;SDS011;43937;41.366;2.072;2023-07-20T13:18:59;7.40;;;4.03;;
56039;SDS011;43937;41.366;2.072;2023-07-20T13:21:24;11.70;;;4.82;;
56039;SDS011;43937;41.366;2.072;2023-07-20T13:23:50;13.63;;;4.68;;
56039;SDS011;43937;41.366;2.072;2023-07-20T13:26:15;9.73;;;4.75;;
56039;SDS011;43937;41.366;2.072;2023-07-20T13:28:41;9.57;;;4.05;;
56039;SDS011;43937;41.366;2.072;2023-07-20T13:31:06;10.45;;;4.80;;
56039;SDS011;43937;41.366;2.072;2023-07-20T13:33:35;20.38;;;4.68;;
56039;SDS011;43937;41.366;2.072;2023-07-20T13:36:00;7.05;;;3.78;;
56039;SDS011;43937;41.366;2.072;2023-07-20T13:38:26;16.33;;;4.60;;
56039;SDS011;43937;41.366;2.072;2023-07-20T13:40:52;11.40;;;4.35;;
56039;SDS011;43937;41.366;2.072;2023-07-20T13:43:18;10.50;;;4.30;;
56039;SDS011;43937;41.366;2.072;2023-07-20T13:45:44;10.05;;;3.97;;
56039;SDS011;43937;41.366;2.072;2023-07-20T13:48:09;10.75;;;4.78;;
56039;SDS011;43937;41.366;2.072;2023-07-20T13:50:35;7.15;;;4.18;;
56039;SDS011;43937;41.366;2.072;2023-07-20T13:53:00;9.40;;;4.10;;
56039;SDS011;43937;41.366;2.072;2023-07-20T13:55:28;10.85;;;4.32;;
56039;SDS011;43937;41.366;2.072;2023-07-20T13:57:58;9.70;;;4.10;;
56039;SDS011;43937;41.366;2.072;2023-07-20T14:00:24;11.20;;;4.20;;
56039;SDS011;43937;41.366;2.072;2023-07-20T14:02:51;8.65;;;3.72;;
56039;SDS011;43937;41.366;2.072;2023-07-20T14:05:18;8.23;;;4.07;;
56039;SDS011;43937;41.366;2.072;2023-07-20T14:07:44;9.65;;;3.97;;
56039;SDS011;43937;41.366;2.072;2023-07-20T14:10:10;7.00;;;3.70;;
56039;SDS011;43937;41.366;2.072;2023-07-20T14:12:35;8.15;;;3.80;;
56039;SDS011;43937;41.366;2.072;2023-07-20T14:15:02;9.68;;;4.28;;
56039;SDS011;43937;41.366;2.072;2023-07-20T14:17:28;15.20;;;4.63;;
56039;SDS011;43937;41.366;2.072;2023-07-20T14:19:54;13.88;;;4.53;;
56039;SDS011;43937;41.366;2.072;2023-07-20T14:22:19;9.50;;;4.22;;
56039;SDS011;43937;41.366;2.072;2023-07-20T14:24:45;10.90;;;4.22;;
56039;SDS011;43937;41.366;2.072;2023-07-20T14:27:10;10.70;;;4.85;;
56039;SDS011;43937;41.366;2.072;2023-07-20T14:29:36;10.07;;;4.55;;
56039;SDS011;43937;41.366;2.072;2023-07-20T14:32:01;9.45;;;3.95;;
56039;SDS011;43937;41.366;2.072;2023-07-20T14:34:28;9.07;;;4.38;;
56039;SDS011;43937;41.366;2.072;2023-07-20T14:36:54;10.82;;;4.15;;
56039;SDS011;43937;41.366;2.072;2023-07-20T14:39:20;11.10;;;3.38;;
56039;SDS011;43937;41.366;2.072;2023-07-20T14:41:45;6.18;;;3.20;;
56039;SDS011;43937;41.366;2.072;2023-07-20T14:44:11;6.85;;;3.58;;
56039;SDS011;43937;41.366;2.072;2023-07-20T14:46:36;10.50;;;3.40;;
56039;SDS011;43937;41.366;2.072;2023-07-20T14:49:01;9.25;;;3.70;;
56039;SDS011;43937;41.366;2.072;2023-07-20T14:51:27;10.43;;;3.35;;